createdAt,value
2019-03-31T00:01:07.497Z,19.39
2019-03-31T00:01:55.871Z,19.38
2019-03-31T00:02:55.909Z,19.38
2019-03-31T00:03:55.899Z,19.37
2019-03-31T00:04:55.980Z,19.37
2019-03-31T00:05:56.029Z,19.37
2019-03-31T00:06:55.989Z,19.36
2019-03-31T00:07:55.844Z,19.36
2019-03-31T00:08:55.956Z,19.36
2019-03-31T00:09:56.015Z,19.37
2019-03-31T00:10:56.077Z,19.35
2019-03-31T00:11:55.869Z,19.35
2019-03-31T00:12:55.734Z,19.35
2019-03-31T00:13:55.800Z,19.35
2019-03-31T00:14:55.773Z,19.34
2019-03-31T00:15:55.755Z,19.34
2019-03-31T00:16:55.982Z,19.33
2019-03-31T00:17:55.944Z,19.33
2019-03-31T00:18:56.186Z,19.33
2019-03-31T00:19:55.840Z,19.32
2019-03-31T00:20:56.022Z,19.33
2019-03-31T00:21:55.871Z,19.32
2019-03-31T00:22:55.973Z,19.32
2019-03-31T00:23:56.020Z,19.32
2019-03-31T00:24:56.090Z,19.31
2019-03-31T00:25:55.928Z,19.3
2019-03-31T00:26:55.981Z,19.3
2019-03-31T00:27:55.735Z,19.3
2019-03-31T00:28:56.046Z,19.29
2019-03-31T00:29:55.975Z,19.28
2019-03-31T00:30:55.798Z,19.29
2019-03-31T00:31:55.782Z,19.28
2019-03-31T00:32:55.848Z,19.29
2019-03-31T00:33:55.887Z,19.28
2019-03-31T00:34:55.858Z,19.28
2019-03-31T00:35:55.850Z,19.28
2019-03-31T00:36:55.949Z,19.27
2019-03-31T00:37:55.894Z,19.27
2019-03-31T00:38:55.781Z,19.27
2019-03-31T00:39:56.185Z,19.27
2019-03-31T00:40:56.028Z,19.27
2019-03-31T00:41:56.052Z,19.26
2019-03-31T00:42:56.061Z,19.27
2019-03-31T00:43:55.973Z,19.26
2019-03-31T00:44:55.985Z,19.26
2019-03-31T00:45:56.075Z,19.26
2019-03-31T00:46:55.801Z,19.25
2019-03-31T00:47:55.892Z,19.26
2019-03-31T00:48:55.862Z,19.25
2019-03-31T00:49:55.830Z,19.24
2019-03-31T00:50:55.860Z,19.24
2019-03-31T00:51:55.773Z,19.23
2019-03-31T00:52:55.804Z,19.23
2019-03-31T00:53:55.903Z,19.23
2019-03-31T00:54:56.132Z,19.23
2019-03-31T00:55:55.911Z,19.23
2019-03-31T00:56:55.856Z,19.23
2019-03-31T00:57:55.850Z,19.23
2019-03-31T00:58:55.964Z,19.23
2019-03-31T00:59:55.955Z,19.23
2019-03-31T01:00:56.069Z,19.23
2019-03-31T01:01:56.112Z,19.22
2019-03-31T01:02:55.787Z,19.22
2019-03-31T01:03:55.955Z,19.21
2019-03-31T01:04:56.026Z,19.2
2019-03-31T01:05:55.769Z,19.21
2019-03-31T01:06:55.753Z,19.21
2019-03-31T01:07:55.918Z,19.2
2019-03-31T01:08:55.845Z,19.19
2019-03-31T01:09:55.896Z,19.19
2019-03-31T01:10:57.940Z,19.19
2019-03-31T01:11:55.918Z,19.19
2019-03-31T01:12:56.021Z,19.18
2019-03-31T01:13:55.874Z,19.18
2019-03-31T01:14:55.877Z,19.18
2019-03-31T01:15:55.905Z,19.18
2019-03-31T01:16:55.969Z,19.18
2019-03-31T01:17:55.947Z,19.18
2019-03-31T01:18:55.964Z,19.17
2019-03-31T01:19:55.969Z,19.17
2019-03-31T01:20:55.742Z,19.17
2019-03-31T01:21:55.940Z,19.18
2019-03-31T01:22:56.001Z,19.17
2019-03-31T01:23:56.302Z,19.16
2019-03-31T01:24:55.736Z,19.16
2019-03-31T01:25:55.889Z,19.16
2019-03-31T01:26:56.871Z,19.16
2019-03-31T01:27:55.837Z,19.14
2019-03-31T01:28:55.877Z,19.15
2019-03-31T01:29:55.903Z,19.13
2019-03-31T01:30:56.142Z,19.13
2019-03-31T01:31:55.848Z,19.14
2019-03-31T01:32:55.913Z,19.14
2019-03-31T01:33:55.859Z,19.13
2019-03-31T01:34:55.908Z,19.13
2019-03-31T01:35:56.079Z,19.13
2019-03-31T01:36:56.013Z,19.14
2019-03-31T01:37:56.030Z,19.13
2019-03-31T01:38:56.059Z,19.12
2019-03-31T01:39:56.064Z,19.12
2019-03-31T01:40:56.047Z,19.12
2019-03-31T01:41:56.101Z,19.11
2019-03-31T01:42:56.137Z,19.13
2019-03-31T01:43:55.743Z,19.11
2019-03-31T01:44:55.999Z,19.11
2019-03-31T01:45:55.797Z,19.11
2019-03-31T01:46:55.887Z,19.12
2019-03-31T01:47:55.779Z,19.11
2019-03-31T01:48:55.832Z,19.1
2019-03-31T01:49:55.709Z,19.1
2019-03-31T01:50:55.848Z,19.09
2019-03-31T01:51:55.937Z,19.08
2019-03-31T01:52:55.736Z,19.09
2019-03-31T01:53:55.840Z,19.09
2019-03-31T01:54:55.961Z,19.08
2019-03-31T01:55:55.902Z,19.07
2019-03-31T01:56:56.002Z,19.07
2019-03-31T01:57:56.015Z,19.07
2019-03-31T01:58:56.030Z,19.07
2019-03-31T01:59:56.192Z,19.07
2019-03-31T02:00:55.967Z,19.07
2019-03-31T02:02:03.844Z,19.06
2019-03-31T02:02:55.855Z,19.06
2019-03-31T02:03:55.717Z,19.06
2019-03-31T02:04:55.790Z,19.06
2019-03-31T02:05:55.732Z,19.06
2019-03-31T02:06:55.920Z,19.06
2019-03-31T02:07:55.922Z,19.05
2019-03-31T02:08:55.749Z,19.05
2019-03-31T02:09:55.844Z,19.05
2019-03-31T02:10:55.916Z,19.05
2019-03-31T02:11:55.818Z,19.05
2019-03-31T02:12:56.021Z,19.04
2019-03-31T02:13:55.995Z,19.04
2019-03-31T02:14:55.899Z,19.04
2019-03-31T02:15:55.956Z,19.04
2019-03-31T02:16:55.890Z,19.03
2019-03-31T02:17:56.033Z,19.04
2019-03-31T02:18:56.009Z,19.04
2019-03-31T02:19:55.996Z,19.03
2019-03-31T02:20:55.834Z,19.03
2019-03-31T02:21:55.882Z,19.02
2019-03-31T02:22:55.766Z,19.02
2019-03-31T02:23:56.100Z,19.02
2019-03-31T02:24:58.587Z,19.02
2019-03-31T02:25:55.804Z,19.01
2019-03-31T02:26:55.911Z,19
2019-03-31T02:27:55.803Z,19
2019-03-31T02:28:56.426Z,19
2019-03-31T02:29:55.867Z,19
2019-03-31T02:30:55.996Z,18.99
2019-03-31T02:31:55.813Z,19
2019-03-31T02:32:56.193Z,18.99
2019-03-31T02:33:56.042Z,19
2019-03-31T02:34:56.025Z,18.99
2019-03-31T02:35:56.023Z,18.99
2019-03-31T02:36:55.967Z,18.99
2019-03-31T02:37:56.087Z,18.99
2019-03-31T02:38:55.728Z,18.99
2019-03-31T02:39:55.834Z,18.97
2019-03-31T02:40:55.759Z,18.98
2019-03-31T02:41:55.745Z,18.97
2019-03-31T02:42:55.860Z,18.97
2019-03-31T02:43:55.724Z,18.98
2019-03-31T02:44:55.892Z,18.97
2019-03-31T02:45:55.814Z,18.97
2019-03-31T02:46:55.823Z,18.96
2019-03-31T02:47:55.770Z,18.97
2019-03-31T02:48:55.831Z,18.97
2019-03-31T02:49:55.991Z,18.96
2019-03-31T02:50:55.729Z,18.96
2019-03-31T02:51:55.895Z,18.96
2019-03-31T02:52:55.903Z,18.96
2019-03-31T02:53:56.004Z,18.95
2019-03-31T02:54:55.795Z,18.95
2019-03-31T02:55:56.019Z,18.95
2019-03-31T02:56:55.829Z,18.95
2019-03-31T02:57:55.762Z,18.95
2019-03-31T02:58:55.766Z,18.94
2019-03-31T02:59:55.748Z,18.94
2019-03-31T03:00:55.893Z,18.94
2019-03-31T03:01:55.849Z,18.94
2019-03-31T03:02:55.786Z,18.94
2019-03-31T03:03:55.868Z,18.94
2019-03-31T03:04:56.114Z,18.93
2019-03-31T03:05:55.987Z,18.94
2019-03-31T03:06:55.748Z,18.92
2019-03-31T03:07:55.867Z,18.93
2019-03-31T03:08:55.887Z,18.92
2019-03-31T03:09:55.929Z,18.93
2019-03-31T03:10:55.996Z,18.92
2019-03-31T03:11:55.906Z,18.91
2019-03-31T03:12:55.940Z,18.92
2019-03-31T03:13:55.975Z,18.91
2019-03-31T03:14:55.783Z,18.91
2019-03-31T03:15:55.719Z,18.91
2019-03-31T03:16:55.713Z,18.91
2019-03-31T03:17:55.802Z,18.91
2019-03-31T03:18:55.763Z,18.9
2019-03-31T03:19:55.813Z,18.9
2019-03-31T03:20:55.867Z,18.91
2019-03-31T03:21:55.772Z,18.91
2019-03-31T03:22:55.827Z,18.9
2019-03-31T03:23:55.898Z,18.9
2019-03-31T03:24:56.007Z,18.9
2019-03-31T03:25:56.830Z,18.89
2019-03-31T03:26:55.961Z,18.89
2019-03-31T03:27:55.948Z,18.9
2019-03-31T03:28:55.863Z,18.89
2019-03-31T03:29:55.885Z,18.88
2019-03-31T03:30:56.190Z,18.88
2019-03-31T03:31:56.116Z,18.89
2019-03-31T03:33:14.264Z,18.88
2019-03-31T03:33:55.706Z,18.89
2019-03-31T03:34:55.872Z,18.89
2019-03-31T03:35:55.845Z,18.88
2019-03-31T03:36:55.893Z,18.89
2019-03-31T03:37:55.751Z,18.89
2019-03-31T03:38:55.787Z,18.89
2019-03-31T03:39:55.921Z,18.89
2019-03-31T03:40:55.820Z,18.89
2019-03-31T03:41:55.978Z,18.9
2019-03-31T03:42:55.820Z,18.89
2019-03-31T03:43:59.784Z,18.91
2019-03-31T03:44:55.859Z,18.91
2019-03-31T03:45:55.888Z,18.91
2019-03-31T03:46:55.909Z,18.92
2019-03-31T03:47:55.966Z,18.92
2019-03-31T03:48:55.963Z,18.93
2019-03-31T03:49:55.921Z,18.93
2019-03-31T03:50:55.937Z,18.94
2019-03-31T03:51:55.761Z,18.95
2019-03-31T03:52:55.783Z,18.95
2019-03-31T03:53:55.775Z,18.96
2019-03-31T03:54:55.776Z,18.97
2019-03-31T03:55:55.764Z,18.99
2019-03-31T03:56:55.756Z,19
2019-03-31T03:57:55.736Z,19.01
2019-03-31T03:58:55.846Z,19.02
2019-03-31T03:59:55.763Z,19.04
2019-03-31T04:00:55.887Z,19.07
2019-03-31T04:01:55.843Z,19.07
2019-03-31T04:02:55.899Z,19.1
2019-03-31T04:03:55.898Z,19.12
2019-03-31T04:04:55.979Z,19.13
2019-03-31T04:05:55.850Z,19.15
2019-03-31T04:06:57.058Z,19.17
2019-03-31T04:07:55.861Z,19.18
2019-03-31T04:08:55.914Z,19.2
2019-03-31T04:09:55.999Z,19.21
2019-03-31T04:10:55.674Z,19.23
2019-03-31T04:11:55.863Z,19.24
2019-03-31T04:12:55.817Z,19.25
2019-03-31T04:13:55.739Z,19.27
2019-03-31T04:14:55.803Z,19.28
2019-03-31T04:15:55.863Z,19.3
2019-03-31T04:16:55.704Z,19.32
2019-03-31T04:17:55.762Z,19.34
2019-03-31T04:18:55.816Z,19.36
2019-03-31T04:19:55.902Z,19.36
2019-03-31T04:20:55.891Z,19.37
2019-03-31T04:21:55.864Z,19.38
2019-03-31T04:22:56.054Z,19.4
2019-03-31T04:23:55.966Z,19.41
2019-03-31T04:24:55.881Z,19.41
2019-03-31T04:25:55.990Z,19.44
2019-03-31T04:26:55.923Z,19.46
2019-03-31T04:27:55.911Z,19.46
2019-03-31T04:28:56.042Z,19.47
2019-03-31T04:29:55.772Z,19.48
2019-03-31T04:30:55.668Z,19.49
2019-03-31T04:31:55.838Z,19.5
2019-03-31T04:32:55.694Z,19.51
2019-03-31T04:33:55.725Z,19.52
2019-03-31T04:34:55.738Z,19.53
2019-03-31T04:35:55.731Z,19.54
2019-03-31T04:36:55.715Z,19.54
2019-03-31T04:37:55.931Z,19.55
2019-03-31T04:38:59.804Z,19.55
2019-03-31T04:39:55.897Z,19.56
2019-03-31T04:40:55.802Z,19.56
2019-03-31T04:41:55.827Z,19.57
2019-03-31T04:42:55.930Z,19.57
2019-03-31T04:43:55.920Z,19.57
2019-03-31T04:44:55.894Z,19.58
2019-03-31T04:45:55.867Z,19.59
2019-03-31T04:46:55.998Z,19.58
2019-03-31T04:47:56.062Z,19.59
2019-03-31T04:48:55.753Z,19.59
2019-03-31T04:49:55.758Z,19.59
2019-03-31T04:50:55.705Z,19.6
2019-03-31T04:51:55.821Z,19.6
2019-03-31T04:52:55.740Z,19.61
2019-03-31T04:53:55.743Z,19.61
2019-03-31T04:54:55.859Z,19.61
2019-03-31T04:55:55.789Z,19.61
2019-03-31T04:56:55.812Z,19.61
2019-03-31T04:57:55.906Z,19.61
2019-03-31T04:58:56.417Z,19.61
2019-03-31T04:59:55.920Z,19.62
2019-03-31T05:00:56.010Z,19.62
2019-03-31T05:01:55.950Z,19.61
2019-03-31T05:02:55.915Z,19.61
2019-03-31T05:04:04.242Z,19.62
2019-03-31T05:04:55.892Z,19.61
2019-03-31T05:05:55.994Z,19.6
2019-03-31T05:06:55.791Z,19.61
2019-03-31T05:07:55.657Z,19.6
2019-03-31T05:08:55.975Z,19.61
2019-03-31T05:09:55.787Z,19.61
2019-03-31T05:10:55.691Z,19.61
2019-03-31T05:11:55.832Z,19.61
2019-03-31T05:12:55.730Z,19.61
2019-03-31T05:13:55.773Z,19.61
2019-03-31T05:14:55.839Z,19.62
2019-03-31T05:15:55.758Z,19.6
2019-03-31T05:16:55.797Z,19.6
2019-03-31T05:17:55.811Z,19.6
2019-03-31T05:18:55.998Z,19.6
2019-03-31T05:19:56.351Z,19.59
2019-03-31T05:20:56.358Z,19.6
2019-03-31T05:21:55.851Z,19.6
2019-03-31T05:22:55.870Z,19.6
2019-03-31T05:23:55.907Z,19.59
2019-03-31T05:24:55.768Z,19.59
2019-03-31T05:25:55.678Z,19.58
2019-03-31T05:26:55.823Z,19.58
2019-03-31T05:27:55.763Z,19.57
2019-03-31T05:28:55.741Z,19.58
2019-03-31T05:29:55.743Z,19.58
2019-03-31T05:30:55.717Z,19.58
2019-03-31T05:31:55.807Z,19.57
2019-03-31T05:32:55.800Z,19.58
2019-03-31T05:33:55.778Z,19.57
2019-03-31T05:34:55.825Z,19.57
2019-03-31T05:35:55.818Z,19.57
2019-03-31T05:36:55.949Z,19.57
2019-03-31T05:37:55.849Z,19.57
2019-03-31T05:38:55.974Z,19.56
2019-03-31T05:39:55.908Z,19.55
2019-03-31T05:40:55.967Z,19.56
2019-03-31T05:41:55.961Z,19.55
2019-03-31T05:42:56.024Z,19.55
2019-03-31T05:44:05.342Z,19.56
2019-03-31T05:44:55.697Z,19.56
2019-03-31T05:45:55.642Z,19.56
2019-03-31T05:46:55.759Z,19.55
2019-03-31T05:47:55.694Z,19.55
2019-03-31T05:48:55.767Z,19.55
2019-03-31T05:49:55.734Z,19.54
2019-03-31T05:50:55.773Z,19.54
2019-03-31T05:51:55.768Z,19.54
2019-03-31T05:52:55.913Z,19.53
2019-03-31T05:53:55.797Z,19.54
2019-03-31T05:54:55.772Z,19.52
2019-03-31T05:55:55.941Z,19.54
2019-03-31T05:56:55.821Z,19.53
2019-03-31T05:57:55.846Z,19.53
2019-03-31T05:58:56.006Z,19.52
2019-03-31T05:59:55.850Z,19.52
2019-03-31T06:00:55.786Z,19.52
2019-03-31T06:01:55.750Z,19.52
2019-03-31T06:02:55.773Z,19.52
2019-03-31T06:03:55.784Z,19.51
2019-03-31T06:04:55.722Z,19.51
2019-03-31T06:05:55.827Z,19.51
2019-03-31T06:06:55.808Z,19.51
2019-03-31T06:07:55.746Z,19.51
2019-03-31T06:08:55.761Z,19.49
2019-03-31T06:09:55.869Z,19.5
2019-03-31T06:10:55.781Z,19.5
2019-03-31T06:11:55.818Z,19.5
2019-03-31T06:12:55.885Z,19.5
2019-03-31T06:13:55.926Z,19.5
2019-03-31T06:14:55.844Z,19.5
2019-03-31T06:15:55.843Z,19.49
2019-03-31T06:16:55.994Z,19.49
2019-03-31T06:17:55.889Z,19.5
2019-03-31T06:18:55.887Z,19.5
2019-03-31T06:19:55.880Z,19.5
2019-03-31T06:20:55.675Z,19.49
2019-03-31T06:21:55.640Z,19.5
2019-03-31T06:22:55.832Z,19.49
2019-03-31T06:23:55.671Z,19.49
2019-03-31T06:24:55.851Z,19.5
2019-03-31T06:25:55.773Z,19.5
2019-03-31T06:26:55.691Z,19.5
2019-03-31T06:27:55.713Z,19.5
2019-03-31T06:28:55.813Z,19.5
2019-03-31T06:29:55.780Z,19.49
2019-03-31T06:30:55.769Z,19.49
2019-03-31T06:31:55.746Z,19.49
2019-03-31T06:32:55.806Z,19.5
2019-03-31T06:33:55.797Z,19.51
2019-03-31T06:34:55.843Z,19.5
2019-03-31T06:35:55.932Z,19.52
2019-03-31T06:36:55.858Z,19.5
2019-03-31T06:37:55.694Z,19.51
2019-03-31T06:38:55.673Z,19.51
2019-03-31T06:39:55.696Z,19.52
2019-03-31T06:40:55.770Z,19.52
2019-03-31T06:41:55.734Z,19.52
2019-03-31T06:42:55.687Z,19.52
2019-03-31T06:43:55.702Z,19.51
2019-03-31T06:44:55.752Z,19.52
2019-03-31T06:45:55.820Z,19.52
2019-03-31T06:46:55.852Z,19.52
2019-03-31T06:47:55.771Z,19.53
2019-03-31T06:48:55.964Z,19.53
2019-03-31T06:49:55.937Z,19.53
2019-03-31T06:50:55.812Z,19.53
2019-03-31T06:51:55.822Z,19.54
2019-03-31T06:52:55.855Z,19.53
2019-03-31T06:53:55.918Z,19.54
2019-03-31T06:54:55.860Z,19.54
2019-03-31T06:55:55.611Z,19.54
2019-03-31T06:56:55.654Z,19.54
2019-03-31T06:57:55.620Z,19.53
2019-03-31T06:58:55.648Z,19.54
2019-03-31T06:59:55.751Z,19.54
2019-03-31T07:00:55.654Z,19.54
2019-03-31T07:01:55.777Z,19.54
2019-03-31T07:02:55.801Z,19.54
2019-03-31T07:03:55.697Z,19.54
2019-03-31T07:05:01.011Z,19.54
2019-03-31T07:05:55.745Z,19.54
2019-03-31T07:06:55.757Z,19.55
2019-03-31T07:07:55.804Z,19.55
2019-03-31T07:08:55.794Z,19.56
2019-03-31T07:09:55.889Z,19.55
2019-03-31T07:10:55.782Z,19.55
2019-03-31T07:11:55.863Z,19.56
2019-03-31T07:12:55.974Z,19.56
2019-03-31T07:13:55.840Z,19.55
2019-03-31T07:14:55.777Z,19.55
2019-03-31T07:15:55.661Z,19.56
2019-03-31T07:16:55.679Z,19.55
2019-03-31T07:17:55.662Z,19.56
2019-03-31T07:18:55.820Z,19.56
2019-03-31T07:19:55.740Z,19.56
2019-03-31T07:20:55.728Z,19.56
2019-03-31T07:21:55.801Z,19.56
2019-03-31T07:22:55.748Z,19.56
2019-03-31T07:23:55.761Z,19.56
2019-03-31T07:24:55.829Z,19.57
2019-03-31T07:25:55.780Z,19.57
2019-03-31T07:26:55.786Z,19.56
2019-03-31T07:27:55.818Z,19.56
2019-03-31T07:28:56.073Z,19.56
2019-03-31T07:29:56.164Z,19.56
2019-03-31T07:30:59.175Z,19.56
2019-03-31T07:31:55.845Z,19.56
2019-03-31T07:32:55.973Z,19.55
2019-03-31T07:33:55.562Z,19.56
2019-03-31T07:34:55.611Z,19.56
2019-03-31T07:35:55.788Z,19.56
2019-03-31T07:36:55.614Z,19.57
2019-03-31T07:37:55.788Z,19.56
2019-03-31T07:38:55.714Z,19.56
2019-03-31T07:39:55.930Z,19.56
2019-03-31T07:40:56.088Z,19.56
2019-03-31T07:41:56.056Z,19.57
2019-03-31T07:42:55.774Z,19.56
2019-03-31T07:43:55.733Z,19.55
2019-03-31T07:44:55.840Z,19.56
2019-03-31T07:45:56.139Z,19.56
2019-03-31T07:46:55.770Z,19.57
2019-03-31T07:47:55.805Z,19.56
2019-03-31T07:48:55.773Z,19.56
2019-03-31T07:49:55.841Z,19.56
2019-03-31T07:50:56.154Z,19.56
2019-03-31T07:51:55.603Z,19.56
2019-03-31T07:52:55.675Z,19.57
2019-03-31T07:53:57.770Z,19.56
2019-03-31T07:54:55.656Z,19.56
2019-03-31T07:55:55.682Z,19.57
2019-03-31T07:56:55.677Z,19.57
2019-03-31T07:57:55.711Z,19.56
2019-03-31T07:58:55.890Z,19.57
2019-03-31T07:59:56.677Z,19.56
2019-03-31T08:00:55.829Z,19.57
2019-03-31T08:01:55.794Z,19.57
2019-03-31T08:02:55.794Z,19.57
2019-03-31T08:03:55.789Z,19.56
2019-03-31T08:04:55.781Z,19.56
2019-03-31T08:05:55.926Z,19.56
2019-03-31T08:06:55.864Z,19.57
2019-03-31T08:07:55.833Z,19.56
2019-03-31T08:08:55.820Z,19.56
2019-03-31T08:09:55.942Z,19.58
2019-03-31T08:10:55.658Z,19.56
2019-03-31T08:11:55.749Z,19.56
2019-03-31T08:12:55.786Z,19.55
2019-03-31T08:13:55.669Z,19.56
2019-03-31T08:14:55.756Z,19.56
2019-03-31T08:15:55.642Z,19.55
2019-03-31T08:16:55.645Z,19.55
2019-03-31T08:17:55.752Z,19.57
2019-03-31T08:18:55.694Z,19.56
2019-03-31T08:19:55.794Z,19.55
2019-03-31T08:20:55.741Z,19.56
2019-03-31T08:21:55.767Z,19.55
2019-03-31T08:22:57.203Z,19.55
2019-03-31T08:23:55.769Z,19.56
2019-03-31T08:24:55.869Z,19.56
2019-03-31T08:25:55.793Z,19.56
2019-03-31T08:26:55.830Z,19.56
2019-03-31T08:27:55.603Z,19.56
2019-03-31T08:28:58.484Z,19.56
2019-03-31T08:30:00.597Z,19.56
2019-03-31T08:30:55.639Z,19.55
2019-03-31T08:31:55.685Z,19.56
2019-03-31T08:32:55.709Z,19.56
2019-03-31T08:33:55.680Z,19.56
2019-03-31T08:34:55.680Z,19.56
2019-03-31T08:35:55.710Z,19.55
2019-03-31T08:36:55.819Z,19.56
2019-03-31T08:37:55.789Z,19.56
2019-03-31T08:38:55.753Z,19.56
2019-03-31T08:39:55.787Z,19.57
2019-03-31T08:40:55.854Z,19.56
2019-03-31T08:41:55.878Z,19.56
2019-03-31T08:42:55.971Z,19.56
2019-03-31T08:43:55.883Z,19.55
2019-03-31T08:44:55.834Z,19.55
2019-03-31T08:45:55.824Z,19.55
2019-03-31T08:46:55.618Z,19.55
2019-03-31T08:47:55.714Z,19.55
2019-03-31T08:48:55.743Z,19.55
2019-03-31T08:49:55.739Z,19.54
2019-03-31T08:50:55.634Z,19.55
2019-03-31T08:51:55.617Z,19.55
2019-03-31T08:52:55.775Z,19.55
2019-03-31T08:53:55.670Z,19.54
2019-03-31T08:54:55.946Z,19.55
2019-03-31T08:55:56.798Z,19.55
2019-03-31T08:56:55.695Z,19.55
2019-03-31T08:57:55.767Z,19.54
2019-03-31T08:58:55.983Z,19.55
2019-03-31T08:59:55.771Z,19.54
2019-03-31T09:00:55.722Z,19.54
2019-03-31T09:01:55.746Z,19.54
2019-03-31T09:02:55.859Z,19.54
2019-03-31T09:03:55.837Z,19.54
2019-03-31T09:04:55.801Z,19.53
2019-03-31T09:06:01.905Z,19.53
2019-03-31T09:06:55.675Z,19.53
2019-03-31T09:07:55.615Z,19.53
2019-03-31T09:08:55.733Z,19.53
2019-03-31T09:09:55.627Z,19.53
2019-03-31T09:10:55.645Z,19.53
2019-03-31T09:11:55.792Z,19.52
2019-03-31T09:12:55.672Z,19.53
2019-03-31T09:13:55.796Z,19.53
2019-03-31T09:14:55.720Z,19.53
2019-03-31T09:15:55.800Z,19.55
2019-03-31T09:16:55.710Z,19.55
2019-03-31T09:17:55.741Z,19.56
2019-03-31T09:18:55.866Z,19.57
2019-03-31T09:19:55.775Z,19.57
2019-03-31T09:20:55.765Z,19.58
2019-03-31T09:21:56.505Z,19.58
2019-03-31T09:22:55.796Z,19.59
2019-03-31T09:23:55.896Z,19.6
2019-03-31T09:24:55.914Z,19.61
2019-03-31T09:25:55.548Z,19.61
2019-03-31T09:26:55.604Z,19.61
2019-03-31T09:27:55.703Z,19.62
2019-03-31T09:28:55.578Z,19.63
2019-03-31T09:29:55.731Z,19.64
2019-03-31T09:30:55.605Z,19.65
2019-03-31T09:31:55.688Z,19.65
2019-03-31T09:32:55.638Z,19.65
2019-03-31T09:33:55.655Z,19.65
2019-03-31T09:34:55.830Z,19.64
2019-03-31T09:35:55.695Z,19.65
2019-03-31T09:36:55.716Z,19.64
2019-03-31T09:37:55.866Z,19.64
2019-03-31T09:38:56.075Z,19.64
2019-03-31T09:39:55.733Z,19.65
2019-03-31T09:40:55.756Z,19.64
2019-03-31T09:41:55.945Z,19.64
2019-03-31T09:42:55.786Z,19.64
2019-03-31T09:43:55.648Z,19.64
2019-03-31T09:44:55.686Z,19.64
2019-03-31T09:45:55.633Z,19.64
2019-03-31T09:46:55.620Z,19.64
2019-03-31T09:47:55.872Z,19.66
2019-03-31T09:48:56.898Z,19.66
2019-03-31T09:49:55.656Z,19.66
2019-03-31T09:50:56.630Z,19.67
2019-03-31T09:51:55.686Z,19.69
2019-03-31T09:52:55.817Z,19.69
2019-03-31T09:53:55.717Z,19.69
2019-03-31T09:54:55.719Z,19.71
2019-03-31T09:55:55.819Z,19.71
2019-03-31T09:56:55.819Z,19.72
2019-03-31T09:57:55.852Z,19.72
2019-03-31T09:58:55.781Z,19.73
2019-03-31T09:59:56.158Z,19.74
2019-03-31T10:00:55.800Z,19.75
2019-03-31T10:01:55.804Z,19.76
2019-03-31T10:02:55.724Z,19.79
2019-03-31T10:03:55.638Z,19.8
2019-03-31T10:04:55.627Z,19.81
2019-03-31T10:06:04.388Z,19.82
2019-03-31T10:06:55.748Z,19.83
2019-03-31T10:07:55.743Z,19.84
2019-03-31T10:08:55.607Z,19.86
2019-03-31T10:09:55.654Z,19.85
2019-03-31T10:10:55.730Z,19.86
2019-03-31T10:11:55.820Z,19.87
2019-03-31T10:12:55.661Z,19.88
2019-03-31T10:13:55.683Z,19.88
2019-03-31T10:14:55.856Z,19.9
2019-03-31T10:15:55.780Z,19.9
2019-03-31T10:16:55.880Z,19.92
2019-03-31T10:17:55.842Z,19.93
2019-03-31T10:18:55.791Z,19.92
2019-03-31T10:19:55.778Z,19.93
2019-03-31T10:20:55.774Z,19.94
2019-03-31T10:21:55.879Z,19.94
2019-03-31T10:22:55.683Z,19.96
2019-03-31T10:23:55.715Z,19.96
2019-03-31T10:24:55.625Z,19.96
2019-03-31T10:25:55.695Z,19.98
2019-03-31T10:26:55.796Z,19.99
2019-03-31T10:27:55.653Z,19.99
2019-03-31T10:28:55.740Z,20.03
2019-03-31T10:29:56.323Z,20.04
2019-03-31T10:30:55.808Z,20.04
2019-03-31T10:31:55.803Z,20.04
2019-03-31T10:32:55.860Z,20.05
2019-03-31T10:33:55.836Z,20.07
2019-03-31T10:34:55.758Z,20.06
2019-03-31T10:35:55.772Z,20.08
2019-03-31T10:36:55.855Z,20.08
2019-03-31T10:37:55.879Z,20.09
2019-03-31T10:38:55.793Z,20.1
2019-03-31T10:39:55.820Z,20.1
2019-03-31T10:40:55.526Z,20.11
2019-03-31T10:41:55.709Z,20.12
2019-03-31T10:42:55.809Z,20.13
2019-03-31T10:43:57.534Z,20.13
2019-03-31T10:44:55.695Z,20.14
2019-03-31T10:45:55.606Z,20.15
2019-03-31T10:46:58.296Z,20.17
2019-03-31T10:47:55.654Z,20.17
2019-03-31T10:48:55.822Z,20.18
2019-03-31T10:49:55.669Z,20.2
2019-03-31T10:50:55.645Z,20.21
2019-03-31T10:51:55.811Z,20.22
2019-03-31T10:52:55.717Z,20.22
2019-03-31T10:53:55.736Z,20.22
2019-03-31T10:54:55.700Z,20.21
2019-03-31T10:55:55.705Z,20.21
2019-03-31T10:56:56.003Z,20.22
2019-03-31T10:57:55.833Z,20.22
2019-03-31T10:58:55.554Z,20.21
2019-03-31T10:59:55.576Z,20.23
2019-03-31T11:00:55.690Z,20.22
2019-03-31T11:01:55.663Z,20.21
2019-03-31T11:02:55.598Z,20.22
2019-03-31T11:03:55.677Z,20.23
2019-03-31T11:04:55.721Z,20.22
2019-03-31T11:05:55.743Z,20.23
2019-03-31T11:06:59.081Z,20.23
2019-03-31T11:07:55.669Z,20.22
2019-03-31T11:08:55.753Z,20.24
2019-03-31T11:09:55.671Z,20.24
2019-03-31T11:10:55.675Z,20.24
2019-03-31T11:11:55.721Z,20.23
2019-03-31T11:12:55.824Z,20.25
2019-03-31T11:13:55.743Z,20.24
2019-03-31T11:14:55.758Z,20.25
2019-03-31T11:15:57.442Z,20.25
2019-03-31T11:16:55.758Z,20.25
2019-03-31T11:17:55.798Z,20.26
2019-03-31T11:18:55.518Z,20.26
2019-03-31T11:19:55.556Z,20.25
2019-03-31T11:20:55.670Z,20.26
2019-03-31T11:21:55.575Z,20.26
2019-03-31T11:22:55.716Z,20.26
2019-03-31T11:23:55.592Z,20.28
2019-03-31T11:24:55.700Z,20.27
2019-03-31T11:25:55.771Z,20.26
2019-03-31T11:26:55.912Z,20.27
2019-03-31T11:27:55.992Z,20.27
2019-03-31T11:28:55.659Z,20.27
2019-03-31T11:29:55.685Z,20.28
2019-03-31T11:30:56.084Z,20.28
2019-03-31T11:31:55.797Z,20.29
2019-03-31T11:32:55.729Z,20.29
2019-03-31T11:33:55.773Z,20.28
2019-03-31T11:34:55.779Z,20.3
2019-03-31T11:35:55.656Z,20.29
2019-03-31T11:36:55.646Z,20.29
2019-03-31T11:37:55.649Z,20.28
2019-03-31T11:38:55.584Z,20.28
2019-03-31T11:39:55.572Z,20.27
2019-03-31T11:40:55.601Z,20.27
2019-03-31T11:41:55.615Z,20.26
2019-03-31T11:42:55.617Z,20.27
2019-03-31T11:43:55.778Z,20.26
2019-03-31T11:44:55.658Z,20.26
2019-03-31T11:45:55.576Z,20.26
2019-03-31T11:46:55.673Z,20.24
2019-03-31T11:47:55.768Z,20.24
2019-03-31T11:48:56.084Z,20.24
2019-03-31T11:49:55.721Z,20.24
2019-03-31T11:50:55.736Z,20.25
2019-03-31T11:51:55.740Z,20.24
2019-03-31T11:52:55.743Z,20.25
2019-03-31T11:53:55.825Z,20.24
2019-03-31T11:54:55.631Z,20.25
2019-03-31T11:55:55.527Z,20.25
2019-03-31T11:56:55.642Z,20.24
2019-03-31T11:57:55.566Z,20.25
2019-03-31T11:58:55.583Z,20.25
2019-03-31T11:59:55.977Z,20.24
2019-03-31T12:00:55.601Z,20.25
2019-03-31T12:01:55.702Z,20.25
2019-03-31T12:02:55.629Z,20.25
2019-03-31T12:03:55.619Z,20.24
2019-03-31T12:04:55.917Z,20.25
2019-03-31T12:05:55.786Z,20.25
2019-03-31T12:06:55.658Z,20.25
2019-03-31T12:07:55.688Z,20.25
2019-03-31T12:08:55.698Z,20.26
2019-03-31T12:09:55.687Z,20.26
2019-03-31T12:10:56.102Z,20.26
2019-03-31T12:11:55.668Z,20.28
2019-03-31T12:12:55.636Z,20.27
2019-03-31T12:13:55.613Z,20.26
2019-03-31T12:15:00.499Z,20.26
2019-03-31T12:15:55.597Z,20.25
2019-03-31T12:16:55.644Z,20.25
2019-03-31T12:17:55.640Z,20.24
2019-03-31T12:18:55.648Z,20.23
2019-03-31T12:19:55.654Z,20.23
2019-03-31T12:20:55.738Z,20.23
2019-03-31T12:21:55.675Z,20.23
2019-03-31T12:22:55.733Z,20.23
2019-03-31T12:23:55.708Z,20.22
2019-03-31T12:24:55.713Z,20.22
2019-03-31T12:25:55.782Z,20.21
2019-03-31T12:26:55.744Z,20.2
2019-03-31T12:27:55.983Z,20.21
2019-03-31T12:28:55.817Z,20.21
2019-03-31T12:29:55.591Z,20.2
2019-03-31T12:30:55.491Z,20.19
2019-03-31T12:31:55.512Z,20.19
2019-03-31T12:32:56.139Z,20.19
2019-03-31T12:33:55.538Z,20.18
2019-03-31T12:34:55.615Z,20.18
2019-03-31T12:35:55.732Z,20.17
2019-03-31T12:36:55.603Z,20.17
2019-03-31T12:37:55.725Z,20.17
2019-03-31T12:38:55.621Z,20.16
2019-03-31T12:39:55.670Z,20.15
2019-03-31T12:40:55.652Z,20.15
2019-03-31T12:41:55.665Z,20.15
2019-03-31T12:42:55.760Z,20.15
2019-03-31T12:43:55.738Z,20.14
2019-03-31T12:44:55.704Z,20.13
2019-03-31T12:45:55.765Z,20.13
2019-03-31T12:46:56.265Z,20.13
2019-03-31T12:47:55.526Z,20.13
2019-03-31T12:48:55.598Z,20.12
2019-03-31T12:49:55.625Z,20.13
2019-03-31T12:50:55.696Z,20.12
2019-03-31T12:51:55.634Z,20.13
2019-03-31T12:52:55.587Z,20.12
2019-03-31T12:53:55.768Z,20.11
2019-03-31T12:54:56.180Z,20.12
2019-03-31T12:56:00.191Z,20.11